Time;durP1;ratioP1;P1;durP2;ratioP2;P2;SDS_P1;SDS_P2;PMS_P1;PMS_P2;Temp;Humidity;BMP_temperature;BMP_pressure;BME280_temperature;BME280_humidity;BME280_pressure;Samples;Min_cycle;Max_cycle;Signal;HPM_P1;HPM_P2
2021/05/23 00:01:50;;;;;;;12.53;5.12;;;;;;;9.49;78.67;100039.45;1641891;84;25651;-74
2021/05/23 00:04:17;;;;;;;11.00;5.58;;;;;;;9.48;78.74;100042.29;1688054;84;25861;-73
2021/05/23 00:06:44;;;;;;;8.78;5.22;;;;;;;9.48;78.71;100039.11;1599874;86;25699;-74
2021/05/23 00:09:11;;;;;;;8.95;5.12;;;;;;;9.47;78.66;100040.66;1658494;85;27179;-74
2021/05/23 00:11:38;;;;;;;13.70;5.55;;;;;;;9.44;78.68;100039.19;1649037;84;26492;-74
2021/05/23 00:14:05;;;;;;;8.05;4.92;;;;;;;9.44;78.79;100035.68;1650444;84;26533;-74
2021/05/23 00:16:32;;;;;;;7.17;4.65;;;;;;;9.42;78.81;100033.20;1657593;85;26280;-74
2021/05/23 00:18:59;;;;;;;8.28;4.33;;;;;;;9.42;78.72;100039.89;1691767;83;25728;-74
2021/05/23 00:21:26;;;;;;;12.23;5.17;;;;;;;9.43;78.74;100038.05;1712597;83;28099;-74
2021/05/23 00:23:54;;;;;;;14.13;6.17;;;;;;;9.39;78.68;100034.92;1692326;83;25870;-74
2021/05/23 00:26:21;;;;;;;10.32;4.72;;;;;;;9.37;78.71;100032.95;1686580;83;25863;-73
2021/05/23 00:28:49;;;;;;;7.47;4.62;;;;;;;9.38;78.71;100033.28;1663172;84;25806;-73
2021/05/23 00:31:16;;;;;;;9.15;5.08;;;;;;;9.38;78.69;100031.11;1683849;84;25861;-74
2021/05/23 00:33:43;;;;;;;7.50;4.55;;;;;;;9.39;78.64;100040.27;1607983;86;27716;-73
2021/05/23 00:36:10;;;;;;;8.60;4.83;;;;;;;9.42;78.61;100039.89;1660545;84;25833;-73
2021/05/23 00:38:39;;;;;;;6.28;4.37;;;;;;;9.43;78.50;100042.86;1652123;84;25753;-73
2021/05/23 00:41:06;;;;;;;9.78;4.92;;;;;;;9.43;78.49;100044.73;1689526;84;26419;-74
2021/05/23 00:43:33;;;;;;;8.63;5.47;;;;;;;9.41;78.48;100048.11;1655183;83;25642;-75
2021/05/23 00:46:00;;;;;;;10.40;5.03;;;;;;;9.38;78.53;100051.16;1669632;84;28109;-74
2021/05/23 00:48:27;;;;;;;7.97;4.45;;;;;;;9.38;78.56;100047.14;1633684;86;25830;-74
2021/05/23 00:50:55;;;;;;;10.28;4.80;;;;;;;9.35;78.62;100043.00;1689270;84;25693;-73
2021/05/23 00:53:22;;;;;;;8.15;4.85;;;;;;;9.35;78.63;100045.67;1612682;86;26460;-73
2021/05/23 00:55:49;;;;;;;8.85;5.60;;;;;;;9.33;78.57;100047.72;1668101;84;25809;-74
2021/05/23 00:58:18;;;;;;;10.90;4.92;;;;;;;9.34;78.62;100048.05;1640480;85;27449;-73
2021/05/23 01:00:59;;;;;;;9.25;4.15;;;;;;;9.34;78.57;100052.86;1679305;84;25721;-73
2021/05/23 01:03:31;;;;;;;10.20;4.12;;;;;;;9.34;78.62;100050.72;1669879;84;25685;-74
2021/05/23 01:06:10;;;;;;;9.45;4.10;;;;;;;9.31;78.67;100052.43;1682632;84;26747;-74
2021/05/23 01:08:39;;;;;;;9.58;3.80;;;;;;;9.32;78.73;100050.89;1666524;84;26397;-73
2021/05/23 01:11:20;;;;;;;8.28;3.65;;;;;;;9.29;78.72;100051.30;1686367;84;27959;-74
2021/05/23 01:14:02;;;;;;;6.80;3.87;;;;;;;9.28;78.64;100054.17;1666281;84;26383;-73
2021/05/23 01:16:46;;;;;;;8.38;3.90;;;;;;;9.27;78.71;100065.36;1694304;83;25766;-74
2021/05/23 01:19:53;;;;;;;6.05;3.52;;;;;;;9.28;78.79;100064.33;1668923;84;25810;-74
2021/05/23 01:22:31;;;;;;;8.55;4.08;;;;;;;9.28;78.84;100058.98;1688640;84;25703;-74
2021/05/23 01:25:16;;;;;;;8.70;3.72;;;;;;;9.27;78.96;100057.34;1673069;84;28084;-75
2021/05/23 01:27:46;;;;;;;7.25;4.05;;;;;;;9.29;78.88;100053.13;1673402;84;25946;-73
2021/05/23 01:30:30;;;;;;;8.15;3.83;;;;;;;9.30;79.02;100052.12;1685501;83;25730;-74
2021/05/23 01:33:00;;;;;;;6.55;3.70;;;;;;;9.30;79.03;100050.80;1709941;83;26318;-74
2021/05/23 01:35:37;;;;;;;7.17;3.60;;;;;;;9.30;79.11;100043.58;1663124;84;25680;-73
2021/05/23 01:38:11;;;;;;;5.87;3.70;;;;;;;9.32;79.31;100041.54;1662962;84;28155;-73
2021/05/23 01:40:40;;;;;;;10.23;4.30;;;;;;;9.33;79.48;100050.39;1682840;84;25995;-74
2021/05/23 01:43:08;;;;;;;5.78;3.62;;;;;;;9.34;79.66;100055.53;1625656;84;25783;-74
2021/05/23 01:45:36;;;;;;;9.43;3.72;;;;;;;9.35;79.75;100055.03;1667584;84;26456;-74
2021/05/23 01:48:07;;;;;;;8.88;3.20;;;;;;;9.36;79.76;100057.20;1689556;84;25711;-74
2021/05/23 01:50:35;;;;;;;9.65;4.15;;;;;;;9.36;79.96;100068.73;1650671;86;27953;-74
2021/05/23 01:53:05;;;;;;;8.05;4.33;;;;;;;9.35;79.94;100063.05;1625976;83;25811;-73
2021/05/23 01:55:34;;;;;;;11.53;3.62;;;;;;;9.36;79.96;100067.39;1609345;84;25908;-73
2021/05/23 01:58:01;;;;;;;14.55;4.05;;;;;;;9.39;79.93;100074.20;1681525;84;25883;-73
2021/05/23 02:00:40;;;;;;;7.87;3.35;;;;;;;9.38;79.95;100073.38;1693491;84;25821;-74
2021/05/23 02:03:10;;;;;;;7.60;3.70;;;;;;;9.39;80.10;100071.53;1648570;84;27416;-73
2021/05/23 02:05:42;;;;;;;6.53;3.30;;;;;;;9.38;80.13;100078.72;1668247;84;25885;-74
2021/05/23 02:08:11;;;;;;;5.72;3.00;;;;;;;9.39;80.17;100083.56;1699288;82;25704;-74
2021/05/23 02:10:39;;;;;;;5.92;3.42;;;;;;;9.40;80.31;100084.70;1715148;83;25741;-73
2021/05/23 02:13:08;;;;;;;7.45;3.40;;;;;;;9.42;80.48;100084.50;1643387;83;25747;-74
2021/05/23 02:15:37;;;;;;;4.60;3.62;;;;;;;9.44;80.41;100084.63;1663375;83;27584;-74
2021/05/23 02:18:05;;;;;;;5.05;3.10;;;;;;;9.46;80.52;100089.77;1709963;83;25677;-74
2021/05/23 02:20:34;;;;;;;4.47;3.08;;;;;;;9.48;80.56;100081.05;1707051;83;26520;-75
2021/05/23 02:23:05;;;;;;;13.05;3.25;;;;;;;9.49;80.62;100080.88;1663302;83;25869;-73
2021/05/23 02:25:34;;;;;;;6.33;3.37;;;;;;;9.52;80.52;100086.33;1681114;84;25786;-73
2021/05/23 02:28:05;;;;;;;8.03;3.10;;;;;;;9.54;80.54;100089.13;1657510;86;27535;-74
2021/05/23 02:30:36;;;;;;;8.23;3.20;;;;;;;9.56;80.61;100091.11;1680519;84;25741;-73
2021/05/23 02:33:07;;;;;;;10.48;3.37;;;;;;;9.55;80.57;100092.14;1659859;84;25724;-73
2021/05/23 02:35:38;;;;;;;7.03;3.67;;;;;;;9.59;80.63;100101.93;1640111;84;26707;-74
2021/05/23 02:38:07;;;;;;;4.58;3.22;;;;;;;9.60;80.67;100099.59;1672360;84;25845;-74
2021/05/23 02:40:35;;;;;;;5.40;3.02;;;;;;;9.61;80.67;100098.55;1713954;83;27197;-73
2021/05/23 02:43:05;;;;;;;6.60;3.10;;;;;;;9.62;80.63;100097.55;1646468;83;25746;-74
2021/05/23 02:45:34;;;;;;;7.40;4.08;;;;;;;9.63;80.63;100101.36;1634240;84;26703;-73
2021/05/23 02:48:04;;;;;;;7.83;3.47;;;;;;;9.66;80.66;100099.65;1694462;83;26492;-73
2021/05/23 02:50:38;;;;;;;7.30;3.50;;;;;;;9.68;80.63;100098.11;1687536;84;25823;-73
2021/05/23 02:53:07;;;;;;;5.80;3.12;;;;;;;9.69;80.75;100105.93;1630526;84;27928;-73
2021/05/23 02:55:35;;;;;;;6.58;3.42;;;;;;;9.71;80.69;100102.55;1686627;84;25643;-74
2021/05/23 02:58:05;;;;;;;6.35;3.40;;;;;;;9.72;80.53;100103.38;1710842;83;25758;-73
2021/05/23 03:00:32;;;;;;;5.15;3.17;;;;;;;9.73;80.56;100107.19;1715271;83;26323;-73
2021/05/23 03:03:02;;;;;;;5.25;3.35;;;;;;;9.73;80.44;100109.87;1608562;86;25687;-74
2021/05/23 03:05:29;;;;;;;6.33;3.25;;;;;;;9.75;80.49;100107.83;1644273;84;27538;-73
2021/05/23 03:07:58;;;;;;;7.42;3.22;;;;;;;9.75;80.48;100099.80;1684804;84;26349;-73
2021/05/23 03:10:33;;;;;;;6.45;3.40;;;;;;;9.79;80.55;100108.28;1683475;84;25284;-73
2021/05/23 03:13:03;;;;;;;9.13;3.40;;;;;;;9.82;80.45;100103.87;1668279;84;26519;-73
2021/05/23 03:15:31;;;;;;;6.73;3.60;;;;;;;9.86;80.49;100110.48;1632638;84;25896;-74
2021/05/23 03:17:58;;;;;;;10.08;3.45;;;;;;;9.89;80.44;100110.94;1654228;86;27637;-74
2021/05/23 03:20:27;;;;;;;7.15;2.52;;;;;;;9.91;80.37;100110.23;1685807;84;25695;-75
2021/05/23 03:22:56;;;;;;;5.42;3.20;;;;;;;9.95;80.40;100105.31;1628659;84;25816;-74
2021/05/23 03:25:26;;;;;;;5.05;3.05;;;;;;;9.98;80.26;100108.45;1645372;82;26912;-74
2021/05/23 03:27:54;;;;;;;5.10;3.00;;;;;;;10.00;80.26;100110.41;1672034;84;25886;-73
2021/05/23 03:30:30;;;;;;;6.35;2.90;;;;;;;10.02;80.26;100104.36;1687314;84;28123;-72
2021/05/23 03:32:57;;;;;;;8.25;3.75;;;;;;;10.05;80.25;100113.84;1671962;84;25848;-75
2021/05/23 03:35:25;;;;;;;6.72;2.80;;;;;;;10.07;80.09;100115.81;1648762;83;25695;-73
2021/05/23 03:37:52;;;;;;;5.75;2.90;;;;;;;10.08;80.03;100108.92;1637845;85;25803;-73
2021/05/23 03:40:20;;;;;;;6.35;2.87;;;;;;;10.10;79.97;100114.06;1655293;84;25635;-74
2021/05/23 03:42:50;;;;;;;6.05;3.00;;;;;;;10.09;79.79;100111.89;1665528;84;28057;-72
2021/05/23 03:45:20;;;;;;;7.15;3.05;;;;;;;10.11;79.75;100113.59;1642795;84;26428;-73
2021/05/23 03:47:48;;;;;;;7.05;3.17;;;;;;;10.09;79.69;100114.57;1651470;84;26571;-73
2021/05/23 03:50:19;;;;;;;4.58;2.92;;;;;;;10.10;79.66;100111.39;1664732;84;25729;-74
2021/05/23 03:52:48;;;;;;;3.72;2.62;;;;;;;10.09;79.62;100111.89;1686710;82;25831;-73
2021/05/23 03:55:16;;;;;;;6.83;3.22;;;;;;;10.10;79.64;100114.06;1648913;84;27561;-73
2021/05/23 03:57:43;;;;;;;4.92;2.77;;;;;;;10.10;79.62;100111.39;1648836;84;25657;-74
2021/05/23 04:00:13;;;;;;;6.22;3.45;;;;;;;10.09;79.70;100120.45;1656762;84;25695;-75
2021/05/23 04:02:41;;;;;;;8.03;3.10;;;;;;;10.11;79.71;100117.61;1686827;82;25944;-74
2021/05/23 04:05:09;;;;;;;5.85;3.30;;;;;;;10.18;79.90;100112.61;1667622;83;26525;-73
2021/05/23 04:07:36;;;;;;;7.90;3.47;;;;;;;10.22;79.90;100121.09;1661387;83;27467;-74
2021/05/23 04:10:06;;;;;;;5.12;3.05;;;;;;;10.29;80.05;100123.27;1669974;83;25636;-74
2021/05/23 04:12:38;;;;;;;5.80;3.10;;;;;;;10.39;79.93;100125.91;1670172;83;25730;-72
2021/05/23 04:15:04;;;;;;;7.45;3.67;;;;;;;10.48;80.11;100126.58;1625725;82;26339;-75
2021/05/23 04:17:31;;;;;;;7.15;3.65;;;;;;;10.54;80.04;100129.30;1664253;83;26579;-74
2021/05/23 04:19:58;;;;;;;4.72;3.22;;;;;;;10.60;80.02;100133.89;1661797;84;28005;-74
2021/05/23 04:22:25;;;;;;;8.35;3.35;;;;;;;10.65;80.09;100135.94;1691625;84;26036;-73
2021/05/23 04:24:53;;;;;;;6.90;2.92;;;;;;;10.65;79.87;100138.63;1652496;84;25686;-73
2021/05/23 04:27:20;;;;;;;4.30;2.80;;;;;;;10.65;79.65;100148.83;1676540;84;25815;-73
2021/05/23 04:29:47;;;;;;;7.62;2.85;;;;;;;10.64;79.45;100141.00;1690683;83;25731;-74
2021/05/23 04:32:14;;;;;;;4.65;2.55;;;;;;;10.63;79.38;100138.83;1684749;84;27413;-74
2021/05/23 04:34:41;;;;;;;4.55;2.55;;;;;;;10.61;79.23;100137.38;1641106;84;25651;-73
2021/05/23 04:37:08;;;;;;;6.92;3.05;;;;;;;10.58;79.06;100136.44;1632959;86;25763;-74
2021/05/23 04:39:35;;;;;;;4.30;2.77;;;;;;;10.65;79.30;100147.49;1684272;84;25660;-74
2021/05/23 04:42:03;;;;;;;4.33;2.67;;;;;;;10.71;79.36;100149.37;1685007;82;25727;-75
2021/05/23 04:44:30;;;;;;;4.42;2.30;;;;;;;10.79;79.30;100146.55;1644464;84;28234;-74
2021/05/23 04:46:57;;;;;;;5.47;2.62;;;;;;;10.90;79.08;100151.86;1648027;84;25825;-74
2021/05/23 04:49:24;;;;;;;3.92;2.60;;;;;;;11.00;79.14;100149.62;1673067;84;25718;-74
2021/05/23 04:51:51;;;;;;;4.72;2.65;;;;;;;11.13;79.12;100154.20;1656700;86;25847;-74
2021/05/23 04:54:18;;;;;;;3.47;2.35;;;;;;;11.26;78.82;100143.52;1640188;84;25684;-74
2021/05/23 04:56:46;;;;;;;4.28;2.37;;;;;;;11.38;78.71;100152.11;1644806;84;27504;-74
2021/05/23 04:59:13;;;;;;;6.60;2.77;;;;;;;11.49;78.34;100148.84;1653033;84;26473;-75
2021/05/23 05:01:40;;;;;;;5.50;2.55;;;;;;;11.61;78.04;100155.78;1685608;84;26487;-74
2021/05/23 05:04:07;;;;;;;3.83;2.37;;;;;;;11.73;77.98;100158.20;1645212;84;26271;-75
2021/05/23 05:06:34;;;;;;;4.92;2.70;;;;;;;11.82;77.41;100152.95;1664479;84;25322;-75
2021/05/23 05:09:01;;;;;;;5.10;2.27;;;;;;;11.92;77.13;100156.04;1662618;84;27173;-75
2021/05/23 05:11:28;;;;;;;5.80;2.77;;;;;;;11.99;76.93;100152.85;1681544;82;26630;-74
2021/05/23 05:13:55;;;;;;;3.67;2.22;;;;;;;12.09;77.11;100155.94;1647590;84;25814;-75
2021/05/23 05:16:22;;;;;;;3.47;2.45;;;;;;;12.21;77.04;100160.18;1666744;84;26582;-75
2021/05/23 05:18:49;;;;;;;8.13;2.80;;;;;;;12.31;76.57;100164.60;1643693;84;25780;-74
2021/05/23 05:21:16;;;;;;;5.03;2.58;;;;;;;12.39;76.25;100169.23;1685255;84;27539;-73
2021/05/23 05:23:43;;;;;;;5.75;2.60;;;;;;;12.48;75.99;100173.05;1643447;84;25697;-74
2021/05/23 05:26:10;;;;;;;4.62;2.70;;;;;;;12.57;75.47;100170.45;1649239;84;25714;-75
2021/05/23 05:28:37;;;;;;;3.77;2.35;;;;;;;12.65;75.11;100168.36;1631185;86;26369;-73
2021/05/23 05:31:04;;;;;;;3.90;2.52;;;;;;;12.78;75.89;100170.19;1684868;84;25767;-74
2021/05/23 05:33:31;;;;;;;3.30;2.40;;;;;;;12.91;75.37;100171.49;1662805;84;27479;-73
2021/05/23 05:35:58;;;;;;;3.62;2.40;;;;;;;13.02;75.30;100172.19;1672779;84;25763;-74
2021/05/23 05:38:25;;;;;;;5.53;2.10;;;;;;;13.14;74.17;100174.53;1664781;84;25841;-74
2021/05/23 05:40:52;;;;;;;5.92;2.37;;;;;;;13.21;73.62;100170.47;1686269;84;26373;-73
2021/05/23 05:43:20;;;;;;;3.95;2.52;;;;;;;13.30;73.78;100174.58;1646894;84;25808;-74
2021/05/23 05:45:47;;;;;;;4.42;2.15;;;;;;;13.41;72.97;100170.67;1662760;84;28102;-73
2021/05/23 05:48:14;;;;;;;3.75;1.82;;;;;;;13.51;72.58;100179.63;1630446;86;26359;-75
2021/05/23 05:50:41;;;;;;;5.30;2.02;;;;;;;13.59;71.88;100182.06;1684977;84;26576;-74
2021/05/23 05:53:08;;;;;;;3.45;1.62;;;;;;;13.68;71.73;100184.30;1623874;86;26349;-74
2021/05/23 05:55:35;;;;;;;2.75;1.80;;;;;;;13.77;72.42;100184.86;1623544;86;26438;-74
2021/05/23 05:58:02;;;;;;;3.77;2.20;;;;;;;13.90;71.89;100195.51;1639209;84;27901;-74
2021/05/23 06:00:29;;;;;;;3.65;1.90;;;;;;;13.95;71.11;100193.00;1682541;84;25722;-74
2021/05/23 06:02:57;;;;;;;3.60;2.33;;;;;;;14.04;69.59;100196.25;1655062;86;25706;-75
2021/05/23 06:05:24;;;;;;;3.35;1.92;;;;;;;14.13;70.99;100191.73;1665619;84;26498;-74
2021/05/23 06:07:51;;;;;;;2.70;1.70;;;;;;;14.24;70.70;100195.58;1655552;86;26098;-75
2021/05/23 06:10:18;;;;;;;4.87;1.92;;;;;;;14.32;68.97;100193.47;1686079;84;27394;-74
2021/05/23 06:12:45;;;;;;;4.72;2.10;;;;;;;14.41;69.64;100198.05;1644671;84;25715;-73
2021/05/23 06:15:13;;;;;;;3.50;1.95;;;;;;;14.49;68.52;100201.81;1620178;84;25694;-73
2021/05/23 06:17:40;;;;;;;5.50;1.80;;;;;;;14.56;68.21;100203.92;1674010;84;26347;-74
2021/05/23 06:20:09;;;;;;;3.40;1.65;;;;;;;14.64;68.56;100209.86;1655857;86;25766;-75
2021/05/23 06:22:36;;;;;;;3.30;1.60;;;;;;;14.72;68.34;100210.08;1645418;84;28065;-75
2021/05/23 06:25:05;;;;;;;5.97;2.00;;;;;;;14.71;67.53;100211.14;1632561;85;25654;-78
2021/05/23 06:27:33;;;;;;;5.55;1.92;;;;;;;14.65;65.17;100220.09;1643812;85;26357;-77
2021/05/23 06:30:00;;;;;;;8.45;1.90;;;;;;;14.63;65.77;100224.37;1671277;85;26453;-75
2021/05/23 06:32:27;;;;;;;6.25;2.02;;;;;;;14.57;64.74;100223.91;1626885;85;25723;-77
2021/05/23 06:34:54;;;;;;;7.33;1.82;;;;;;;14.52;66.41;100223.73;1634967;85;27410;-75
2021/05/23 06:37:21;;;;;;;3.85;1.37;;;;;;;14.48;65.80;100217.14;1638990;84;25820;-74
2021/05/23 06:39:48;;;;;;;4.33;1.57;;;;;;;14.47;66.48;100216.03;1682746;84;25861;-75
2021/05/23 06:42:15;;;;;;;4.17;1.65;;;;;;;14.56;66.65;100218.20;1626958;85;26424;-77
2021/05/23 06:44:42;;;;;;;5.40;1.70;;;;;;;14.60;64.94;100221.30;1648358;84;26353;-75
2021/05/23 06:47:09;;;;;;;4.95;1.67;;;;;;;14.68;64.99;100225.05;1642750;85;27259;-75
2021/05/23 06:49:36;;;;;;;7.28;1.60;;;;;;;14.81;65.06;100221.39;1683562;84;25778;-76
2021/05/23 06:52:04;;;;;;;3.65;1.30;;;;;;;14.87;65.23;100221.33;1654028;84;25819;-75
2021/05/23 06:54:31;;;;;;;5.25;1.70;;;;;;;14.99;65.03;100224.92;1632687;85;25929;-75
2021/05/23 06:56:58;;;;;;;6.12;1.45;;;;;;;15.07;64.65;100228.70;1656478;84;26399;-77
2021/05/23 06:59:26;;;;;;;4.45;1.60;;;;;;;15.11;64.78;100227.71;1682748;84;27540;-76
2021/05/23 07:01:53;;;;;;;3.62;1.45;;;;;;;15.21;64.78;100236.92;1661188;84;26437;-74
2021/05/23 07:04:20;;;;;;;4.08;1.37;;;;;;;15.26;62.59;100232.20;1658818;84;25735;-76
2021/05/23 07:06:47;;;;;;;2.22;1.90;;;;;;;15.32;63.90;100239.39;1643994;85;26453;-76
2021/05/23 07:09:14;;;;;;;6.08;1.50;;;;;;;15.37;63.74;100240.37;1682834;84;25685;-76
2021/05/23 07:11:41;;;;;;;3.02;1.15;;;;;;;15.33;61.96;100245.90;1655786;84;27481;-76
2021/05/23 07:14:08;;;;;;;4.45;1.65;;;;;;;15.33;62.88;100247.25;1633924;86;25808;-77
2021/05/23 07:16:35;;;;;;;2.55;1.30;;;;;;;15.36;63.50;100245.98;1654084;84;25620;-77
2021/05/23 07:19:03;;;;;;;3.15;1.20;;;;;;;15.39;63.21;100247.72;1656957;84;25849;-75
2021/05/23 07:21:30;;;;;;;3.98;1.30;;;;;;;15.38;62.71;100251.98;1667278;84;25282;-77
2021/05/23 07:23:57;;;;;;;2.83;1.45;;;;;;;15.45;63.03;100251.41;1624866;84;31500;-80
2021/05/23 07:26:24;;;;;;;5.00;1.62;;;;;;;15.54;63.54;100259.50;1634422;85;25744;-77
2021/05/23 07:28:52;;;;;;;4.30;1.50;;;;;;;15.65;62.84;100261.44;1633265;84;26530;-76
2021/05/23 07:31:21;;;;;;;3.62;1.20;;;;;;;15.66;61.96;100267.13;1645027;84;25924;-76
2021/05/23 07:33:48;;;;;;;2.92;1.00;;;;;;;15.70;62.47;100263.44;1616893;84;25746;-77
2021/05/23 07:36:15;;;;;;;2.05;1.10;;;;;;;15.77;60.94;100266.88;1644231;84;27655;-75
2021/05/23 07:38:42;;;;;;;4.05;1.55;;;;;;;15.86;62.24;100273.09;1669700;85;25702;-76
2021/05/23 07:41:09;;;;;;;1.70;1.10;;;;;;;15.98;61.47;100273.12;1671408;85;25668;-76
2021/05/23 07:43:38;;;;;;;2.85;1.20;;;;;;;15.99;61.03;100281.02;1629255;85;25752;-75
2021/05/23 07:46:05;;;;;;;2.98;1.40;;;;;;;16.00;62.05;100288.58;1633662;85;25695;-76
2021/05/23 07:48:32;;;;;;;4.30;1.15;;;;;;;15.97;59.68;100285.80;1649700;85;27426;-76
2021/05/23 07:51:00;;;;;;;1.27;0.98;;;;;;;15.91;60.11;100287.27;1669580;84;25675;-76
2021/05/23 07:53:28;;;;;;;4.50;1.30;;;;;;;15.93;60.74;100289.22;1614436;87;25756;-75
2021/05/23 07:55:56;;;;;;;4.20;1.20;;;;;;;15.97;59.85;100289.85;1626853;86;26449;-76
2021/05/23 07:58:23;;;;;;;1.77;0.90;;;;;;;16.09;61.02;100286.69;1647701;85;25763;-76
2021/05/23 08:00:51;;;;;;;3.02;1.35;;;;;;;16.23;61.52;100287.84;1670665;85;27491;-76
2021/05/23 08:03:18;;;;;;;3.80;1.10;;;;;;;16.37;60.72;100290.11;1603681;85;25846;-76
2021/05/23 08:05:45;;;;;;;1.75;1.00;;;;;;;16.43;61.12;100286.47;1633260;85;25681;-75
2021/05/23 08:08:12;;;;;;;2.47;1.12;;;;;;;16.50;59.70;100292.64;1638200;85;25809;-77
2021/05/23 08:10:39;;;;;;;1.85;1.10;;;;;;;16.52;59.38;100288.34;1671416;84;25711;-75
2021/05/23 08:13:07;;;;;;;2.92;1.30;;;;;;;16.57;60.20;100290.63;1625947;85;27382;-76
2021/05/23 08:15:34;;;;;;;3.37;1.30;;;;;;;16.65;60.88;100293.54;1648491;85;25739;-75
2021/05/23 08:18:01;;;;;;;2.20;1.00;;;;;;;16.77;60.26;100291.14;1656779;84;26178;-76
2021/05/23 08:20:28;;;;;;;3.77;1.07;;;;;;;16.83;59.25;100279.89;1669580;85;25789;-75
2021/05/23 08:22:55;;;;;;;1.92;0.93;;;;;;;16.87;56.53;100281.90;1600056;85;25890;-76
2021/05/23 08:25:22;;;;;;;1.85;0.80;;;;;;;16.82;58.02;100297.20;1633521;85;28070;-76
2021/05/23 08:27:49;;;;;;;1.15;0.62;;;;;;;16.82;59.27;100304.80;1649439;85;25724;-76
2021/05/23 08:30:16;;;;;;;3.42;0.82;;;;;;;16.89;59.47;100308.19;1648459;85;25852;-77
2021/05/23 08:32:44;;;;;;;2.33;0.60;;;;;;;16.89;57.98;100308.19;1625648;85;25670;-76
2021/05/23 08:35:12;;;;;;;2.72;1.00;;;;;;;16.83;57.64;100301.53;1613142;85;25748;-76
2021/05/23 08:37:40;;;;;;;1.35;0.88;;;;;;;16.72;57.08;100292.91;1648569;84;27529;-76
2021/05/23 08:40:09;;;;;;;2.02;1.00;;;;;;;16.65;58.07;100297.59;1671291;85;25767;-76
2021/05/23 08:42:38;;;;;;;1.72;0.85;;;;;;;16.69;58.46;100305.02;1601311;85;25344;-76
2021/05/23 08:45:07;;;;;;;2.80;0.90;;;;;;;16.76;58.50;100311.14;1650792;85;26354;-75
2021/05/23 08:47:44;;;;;;;1.98;0.78;;;;;;;16.74;57.69;100309.73;1670946;85;25303;-76
2021/05/23 08:50:11;;;;;;;2.85;0.82;;;;;;;16.63;57.29;100307.83;1669971;85;27432;-75
2021/05/23 08:52:38;;;;;;;3.17;1.05;;;;;;;16.59;57.42;100310.19;1622348;85;26005;-75
2021/05/23 08:55:06;;;;;;;5.47;1.32;;;;;;;16.68;56.90;100309.31;1633177;85;25924;-75
2021/05/23 08:57:34;;;;;;;2.08;0.90;;;;;;;16.77;56.76;100313.30;1670184;85;26097;-76
2021/05/23 09:00:04;;;;;;;1.95;1.02;;;;;;;16.76;55.77;100307.61;1649176;85;25712;-75
2021/05/23 09:02:31;;;;;;;2.72;1.20;;;;;;;16.75;55.96;100321.66;1604853;85;27994;-76
2021/05/23 09:04:58;;;;;;;3.92;1.32;;;;;;;16.83;56.56;100315.06;1632724;85;25739;-76
2021/05/23 09:07:25;;;;;;;1.98;0.90;;;;;;;16.82;55.96;100323.73;1657161;86;25613;-76
2021/05/23 09:09:52;;;;;;;2.55;0.80;;;;;;;16.77;55.87;100324.95;1657968;86;26026;-76
2021/05/23 09:12:20;;;;;;;1.80;1.00;;;;;;;16.81;55.23;100329.35;1610578;86;25713;-75
2021/05/23 09:14:52;;;;;;;1.32;0.85;;;;;;;16.85;54.96;100328.66;1633835;86;27652;-76
2021/05/23 09:17:26;;;;;;;1.42;0.98;;;;;;;16.84;54.90;100331.08;1648015;85;25702;-76
2021/05/23 09:19:56;;;;;;;1.62;0.80;;;;;;;16.87;55.97;100325.19;1670027;84;25706;-75
2021/05/23 09:22:28;;;;;;;3.20;1.00;;;;;;;16.99;56.04;100325.20;1623150;85;26837;-76
2021/05/23 09:25:03;;;;;;;4.15;0.95;;;;;;;17.06;56.40;100296.67;1632900;85;25681;-76
2021/05/23 09:27:32;;;;;;;2.20;0.95;;;;;;;17.27;55.17;100319.91;1646702;85;28081;-75
2021/05/23 09:30:03;;;;;;;2.02;0.65;;;;;;;17.26;54.20;100325.53;1665047;84;25688;-76
2021/05/23 09:32:33;;;;;;;2.35;0.82;;;;;;;17.23;54.81;100315.20;1604006;85;25712;-75
2021/05/23 09:35:07;;;;;;;1.52;0.80;;;;;;;17.23;55.64;100317.91;1667852;84;25860;-76
2021/05/23 09:37:35;;;;;;;1.98;0.85;;;;;;;17.25;54.28;100330.15;1671330;85;25725;-76
2021/05/23 09:40:07;;;;;;;2.85;0.70;;;;;;;17.22;53.35;100321.66;1669799;85;27551;-76
2021/05/23 09:42:45;;;;;;;4.90;0.72;;;;;;;17.23;54.58;100326.86;1615491;85;26089;-76
2021/05/23 09:45:14;;;;;;;2.40;1.00;;;;;;;17.32;55.61;100330.83;1668213;84;25737;-74
2021/05/23 09:47:59;;;;;;;1.85;0.53;;;;;;;17.52;54.41;100321.84;1670067;84;25853;-76
2021/05/23 09:50:44;;;;;;;1.82;0.80;;;;;;;17.54;54.36;100327.84;1653671;84;25622;-75
2021/05/23 09:53:31;;;;;;;1.50;0.68;;;;;;;17.47;53.44;100323.04;1657958;84;28194;-75
2021/05/23 09:56:09;;;;;;;2.87;0.72;;;;;;;17.42;54.71;100332.42;1649926;85;25680;-75
2021/05/23 09:58:47;;;;;;;2.45;1.05;;;;;;;17.39;51.82;100343.72;1648306;85;25684;-76
2021/05/23 10:01:33;;;;;;;3.37;0.70;;;;;;;17.28;53.14;100343.75;1671036;85;26803;-75
2021/05/23 10:04:02;;;;;;;4.00;0.70;;;;;;;17.21;54.08;100343.03;1624992;84;25634;-75
2021/05/23 10:06:31;;;;;;;1.72;1.30;;;;;;;17.35;54.92;100337.66;1646580;85;27512;-76
2021/05/23 10:08:58;;;;;;;2.33;0.80;;;;;;;17.60;55.38;100337.71;1646746;84;26269;-75
2021/05/23 10:11:27;;;;;;;4.78;1.00;;;;;;;17.85;54.18;100332.53;1646409;84;25666;-75
2021/05/23 10:13:54;;;;;;;3.08;1.00;;;;;;;18.06;54.48;100338.64;1625020;85;25803;-76
2021/05/23 10:16:22;;;;;;;1.55;0.70;;;;;;;18.08;54.97;100348.70;1633056;85;26054;-75
2021/05/23 10:18:50;;;;;;;2.72;0.70;;;;;;;18.01;52.79;100344.78;1671042;85;27493;-76
2021/05/23 10:21:18;;;;;;;1.80;0.80;;;;;;;18.00;52.76;100340.97;1660175;84;26362;-76
2021/05/23 10:23:58;;;;;;;2.72;0.60;;;;;;;18.13;53.17;100339.33;1612126;86;25585;-75
2021/05/23 10:26:27;;;;;;;1.65;0.75;;;;;;;18.29;53.15;100346.67;1655933;86;25742;-76
2021/05/23 10:28:55;;;;;;;3.50;1.02;;;;;;;18.47;52.99;100356.00;1655287;86;25287;-76
2021/05/23 10:31:34;;;;;;;1.15;0.60;;;;;;;18.63;52.83;100353.83;1657449;86;27336;-75
2021/05/23 10:34:02;;;;;;;2.55;0.65;;;;;;;18.71;50.17;100352.63;1601226;86;25672;-76
2021/05/23 10:36:34;;;;;;;1.75;0.72;;;;;;;18.79;51.79;100352.20;1608211;87;25602;-76
2021/05/23 10:39:05;;;;;;;2.47;0.65;;;;;;;18.88;50.56;100359.67;1634576;86;26401;-75
2021/05/23 10:41:32;;;;;;;2.17;0.65;;;;;;;18.73;49.65;100363.52;1627162;87;25349;-75
2021/05/23 10:44:06;;;;;;;2.55;0.90;;;;;;;18.43;49.51;100362.95;1590052;87;27631;-76
2021/05/23 10:46:46;;;;;;;1.50;0.95;;;;;;;18.18;51.05;100365.99;1612042;87;26608;-75
2021/05/23 10:49:13;;;;;;;2.15;0.70;;;;;;;18.09;51.41;100374.20;1648508;85;26025;-76
2021/05/23 10:51:53;;;;;;;2.37;0.75;;;;;;;18.08;52.61;100376.64;1634451;86;25833;-76
2021/05/23 10:54:20;;;;;;;5.15;1.07;;;;;;;18.18;51.28;100372.77;1651506;84;25822;-76
2021/05/23 10:57:00;;;;;;;1.87;0.60;;;;;;;18.23;51.92;100370.69;1628480;84;28122;-76
2021/05/23 10:59:30;;;;;;;5.65;0.95;;;;;;;18.24;50.69;100374.51;1633999;86;26289;-76
2021/05/23 11:01:57;;;;;;;18.50;1.70;;;;;;;18.18;50.36;100377.36;1631629;86;25804;-77
2021/05/23 11:04:41;;;;;;;1.85;0.88;;;;;;;18.20;50.42;100359.80;1658876;84;26317;-76
2021/05/23 11:07:10;;;;;;;1.12;0.70;;;;;;;18.28;50.94;100368.89;1620170;86;25781;-77
2021/05/23 11:09:41;;;;;;;1.05;0.78;;;;;;;18.27;50.66;100372.68;1623061;86;27409;-76
2021/05/23 11:12:10;;;;;;;2.10;1.27;;;;;;;18.27;51.55;100365.07;1669675;85;25724;-76
2021/05/23 11:14:39;;;;;;;0.75;0.60;;;;;;;18.40;52.00;100365.61;1670017;84;25657;-76
2021/05/23 11:17:10;;;;;;;1.00;0.62;;;;;;;18.63;51.54;100366.04;1629389;85;25700;-76
2021/05/23 11:19:39;;;;;;;3.55;1.22;;;;;;;18.76;51.90;100371.68;1647398;85;25839;-75
2021/05/23 11:22:06;;;;;;;2.95;1.02;;;;;;;18.92;50.76;100372.24;1627677;85;27523;-76
2021/05/23 11:24:36;;;;;;;1.75;0.85;;;;;;;18.96;50.19;100367.44;1669724;85;25950;-75
2021/05/23 11:27:19;;;;;;;6.50;1.30;;;;;;;19.06;50.12;100370.30;1628656;85;25746;-76
2021/05/23 11:29:48;;;;;;;2.60;0.68;;;;;;;19.17;50.08;100369.39;1633804;86;26035;-75
2021/05/23 11:32:16;;;;;;;1.47;0.80;;;;;;;19.28;49.89;100368.18;1629727;86;25757;-77
2021/05/23 11:34:44;;;;;;;2.90;0.75;;;;;;;19.28;49.86;100360.03;1631053;87;27422;-76
2021/05/23 11:37:12;;;;;;;4.17;0.80;;;;;;;19.32;48.75;100365.25;1628553;87;25682;-75